Time;durP1;ratioP1;P1;durP2;ratioP2;P2;SDS_P1;SDS_P2;PMS_P1;PMS_P2;Temp;Humidity;BMP_temperature;BMP_pressure;BME280_temperature;BME280_humidity;BME280_pressure;Samples;Min_cycle;Max_cycle;Signal;HPM_P1;HPM_P2
2021/09/12 00:00:17;;;;;;;55.28;33.22;;;;;;;;;;5019718;28;20058;-65
2021/09/12 00:02:43;;;;;;;67.93;34.30;;;;;;;;;;5020229;28;20452;-65
2021/09/12 00:05:09;;;;;;;83.63;36.70;;;;;;;;;;5011738;28;20517;-65
2021/09/12 00:07:35;;;;;;;51.03;31.80;;;;;;;;;;5026874;28;20189;-65
2021/09/12 00:10:01;;;;;;;57.55;34.88;;;;;;;;;;5017760;28;20037;-65
2021/09/12 00:12:27;;;;;;;50.00;31.95;;;;;;;;;;5016443;28;20088;-65
2021/09/12 00:14:53;;;;;;;61.50;33.85;;;;;;;;;;5019620;28;20537;-65
2021/09/12 00:17:19;;;;;;;83.47;36.35;;;;;;;;;;5024418;28;20041;-65
2021/09/12 00:19:45;;;;;;;54.28;33.28;;;;;;;;;;5023076;28;20093;-65
2021/09/12 00:22:11;;;;;;;55.88;32.42;;;;;;;;;;5021690;28;20124;-65
2021/09/12 00:24:37;;;;;;;48.05;31.00;;;;;;;;;;5024928;28;20040;-65
2021/09/12 00:27:04;;;;;;;55.05;31.98;;;;;;;;;;5016392;28;20045;-65
2021/09/12 00:29:30;;;;;;;48.15;31.30;;;;;;;;;;5019348;28;20049;-65
2021/09/12 00:31:56;;;;;;;42.25;29.08;;;;;;;;;;5019536;28;20045;-65
2021/09/12 00:34:22;;;;;;;44.75;29.77;;;;;;;;;;5024938;28;20037;-65
2021/09/12 00:36:48;;;;;;;50.20;30.27;;;;;;;;;;5014683;28;20131;-65
2021/09/12 00:39:14;;;;;;;42.90;29.02;;;;;;;;;;5023976;28;20103;-65
2021/09/12 00:41:42;;;;;;;55.08;31.33;;;;;;;;;;5016688;28;20470;-65
2021/09/12 00:44:12;;;;;;;39.05;27.60;;;;;;;;;;5024096;28;20124;-65
2021/09/12 00:46:39;;;;;;;49.15;30.25;;;;;;;;;;5012902;28;20119;-65
2021/09/12 00:49:05;;;;;;;41.63;28.48;;;;;;;;;;5020923;28;20061;-65
2021/09/12 00:51:31;;;;;;;41.25;27.02;;;;;;;;;;5019577;28;20037;-65
2021/09/12 00:53:58;;;;;;;44.78;26.95;;;;;;;;;;5019677;28;20089;-65
2021/09/12 00:56:27;;;;;;;52.42;28.65;;;;;;;;;;5015423;28;20499;-65
2021/09/12 00:58:54;;;;;;;65.22;31.83;;;;;;;;;;5021289;28;20080;-65
2021/09/12 01:01:20;;;;;;;53.50;29.02;;;;;;;;;;5020145;28;20076;-65
2021/09/12 01:03:47;;;;;;;45.35;26.95;;;;;;;;;;5013987;28;20045;-65
2021/09/12 01:06:13;;;;;;;38.75;25.35;;;;;;;;;;5018550;28;20049;-65
2021/09/12 01:08:40;;;;;;;53.75;28.08;;;;;;;;;;5016162;28;20111;-65
2021/09/12 01:11:06;;;;;;;119.22;36.15;;;;;;;;;;5019861;28;21260;-65
2021/09/12 01:13:39;;;;;;;44.97;27.52;;;;;;;;;;5010844;28;20044;-65
2021/09/12 01:16:15;;;;;;;43.05;28.00;;;;;;;;;;5023609;28;20060;-65
2021/09/12 01:18:41;;;;;;;36.85;25.80;;;;;;;;;;5014294;28;20265;-65
2021/09/12 01:21:11;;;;;;;37.85;27.33;;;;;;;;;;5017572;28;20038;-65
2021/09/12 01:23:38;;;;;;;40.78;27.60;;;;;;;;;;5010201;28;20030;-65
2021/09/12 01:26:04;;;;;;;80.65;35.40;;;;;;;;;;5022223;28;20351;-65
2021/09/12 01:28:30;;;;;;;89.07;34.05;;;;;;;;;;5011709;28;20087;-65
2021/09/12 01:30:56;;;;;;;42.10;27.90;;;;;;;;;;5016820;28;20042;-65
2021/09/12 01:33:22;;;;;;;49.40;29.75;;;;;;;;;;5014197;28;20033;-65
2021/09/12 01:35:48;;;;;;;81.90;34.95;;;;;;;;;;5024679;28;20041;-65
2021/09/12 01:38:14;;;;;;;92.72;38.13;;;;;;;;;;5017601;28;20060;-64
2021/09/12 01:40:40;;;;;;;47.58;28.50;;;;;;;;;;5022922;28;20081;-64
2021/09/12 01:43:06;;;;;;;41.22;28.42;;;;;;;;;;5013926;28;20044;-64
2021/09/12 01:45:33;;;;;;;42.78;29.20;;;;;;;;;;5023193;28;20048;-64
2021/09/12 01:48:00;;;;;;;43.97;29.70;;;;;;;;;;5019529;28;20037;-64
2021/09/12 01:50:26;;;;;;;40.90;28.80;;;;;;;;;;5017236;28;20068;-65
2021/09/12 01:52:53;;;;;;;45.88;29.85;;;;;;;;;;5016664;28;20091;-64
2021/09/12 01:55:19;;;;;;;59.58;31.45;;;;;;;;;;5014200;28;20337;-64
2021/09/12 01:57:45;;;;;;;47.92;29.42;;;;;;;;;;5020130;28;20072;-65
2021/09/12 02:00:11;;;;;;;47.55;29.77;;;;;;;;;;5013850;28;20115;-65
2021/09/12 02:02:37;;;;;;;48.40;28.40;;;;;;;;;;5026974;28;20049;-65
2021/09/12 02:05:04;;;;;;;75.18;33.15;;;;;;;;;;5015086;28;20045;-65
2021/09/12 02:07:30;;;;;;;51.63;29.00;;;;;;;;;;5015456;28;20052;-65
2021/09/12 02:09:56;;;;;;;46.10;28.42;;;;;;;;;;5014360;28;20048;-65
2021/09/12 02:12:22;;;;;;;74.47;31.95;;;;;;;;;;5022186;28;20089;-65
2021/09/12 02:14:48;;;;;;;44.20;25.80;;;;;;;;;;5008061;28;20045;-64
2021/09/12 02:17:15;;;;;;;58.90;29.08;;;;;;;;;;5015594;28;20073;-64
2021/09/12 02:19:41;;;;;;;56.65;30.58;;;;;;;;;;5018556;28;20417;-65
2021/09/12 02:22:07;;;;;;;57.45;28.35;;;;;;;;;;5017568;28;20544;-64
2021/09/12 02:24:33;;;;;;;61.78;28.60;;;;;;;;;;5016403;28;20034;-65
2021/09/12 02:26:59;;;;;;;62.60;28.80;;;;;;;;;;5016112;28;20038;-64
2021/09/12 02:29:25;;;;;;;47.45;27.30;;;;;;;;;;5022146;28;20072;-65
2021/09/12 02:31:53;;;;;;;58.13;27.73;;;;;;;;;;5013741;28;20037;-65
2021/09/12 02:34:19;;;;;;;45.92;25.05;;;;;;;;;;5023655;28;20034;-65
2021/09/12 02:36:45;;;;;;;64.18;28.08;;;;;;;;;;5011526;28;20034;-64
2021/09/12 02:39:11;;;;;;;49.28;25.50;;;;;;;;;;5020220;28;20045;-65
2021/09/12 02:41:37;;;;;;;47.22;25.45;;;;;;;;;;5012741;28;20140;-65
2021/09/12 02:44:03;;;;;;;47.60;25.98;;;;;;;;;;5023164;28;20033;-64
2021/09/12 02:46:31;;;;;;;67.13;29.42;;;;;;;;;;5011409;28;20038;-64
2021/09/12 02:48:57;;;;;;;56.47;26.98;;;;;;;;;;5019033;28;20065;-64
2021/09/12 02:51:23;;;;;;;46.22;24.25;;;;;;;;;;5010006;28;20037;-64
2021/09/12 02:53:49;;;;;;;71.22;28.45;;;;;;;;;;5020255;28;20033;-65
2021/09/12 02:56:15;;;;;;;54.17;26.73;;;;;;;;;;5016042;28;20138;-65
2021/09/12 02:58:41;;;;;;;80.15;30.60;;;;;;;;;;5023912;28;20107;-65
2021/09/12 03:01:07;;;;;;;61.88;27.55;;;;;;;;;;5023807;28;20057;-64
2021/09/12 03:03:33;;;;;;;88.53;30.65;;;;;;;;;;5017512;28;20445;-64
2021/09/12 03:05:59;;;;;;;50.22;24.63;;;;;;;;;;5018768;28;20084;-64
2021/09/12 03:08:26;;;;;;;41.30;23.60;;;;;;;;;;5009204;28;20044;-65
2021/09/12 03:10:52;;;;;;;51.90;25.33;;;;;;;;;;5026401;28;20498;-65
2021/09/12 03:13:18;;;;;;;67.50;28.85;;;;;;;;;;5014254;28;20124;-65
2021/09/12 03:15:44;;;;;;;67.72;27.45;;;;;;;;;;5021882;28;20470;-65
2021/09/12 03:18:10;;;;;;;59.38;26.27;;;;;;;;;;5014187;28;20041;-65
2021/09/12 03:20:36;;;;;;;68.60;26.45;;;;;;;;;;5024181;28;20045;-65
2021/09/12 03:23:03;;;;;;;53.38;23.40;;;;;;;;;;5019204;28;20569;-65
2021/09/12 03:25:30;;;;;;;46.20;22.33;;;;;;;;;;5027598;28;20115;-65
2021/09/12 03:27:56;;;;;;;40.58;20.33;;;;;;;;;;5016908;28;20088;-65
2021/09/12 03:30:22;;;;;;;46.38;22.02;;;;;;;;;;5022305;28;20065;-65
2021/09/12 03:32:48;;;;;;;36.63;18.75;;;;;;;;;;5012544;28;20537;-65
2021/09/12 03:35:14;;;;;;;38.03;19.15;;;;;;;;;;5026410;28;20047;-65
2021/09/12 03:37:40;;;;;;;56.08;21.33;;;;;;;;;;5020641;28;20041;-65
2021/09/12 03:40:07;;;;;;;40.15;18.55;;;;;;;;;;5017300;28;20497;-65
2021/09/12 03:42:33;;;;;;;33.67;18.27;;;;;;;;;;5023089;28;20096;-65
2021/09/12 03:44:59;;;;;;;39.05;18.08;;;;;;;;;;5021501;28;20385;-65
2021/09/12 03:47:25;;;;;;;39.97;18.67;;;;;;;;;;5023956;28;20095;-64
2021/09/12 03:49:51;;;;;;;30.33;16.15;;;;;;;;;;5015388;28;20045;-64
2021/09/12 03:52:18;;;;;;;41.20;19.00;;;;;;;;;;5022501;28;20038;-64
2021/09/12 03:54:44;;;;;;;42.00;19.92;;;;;;;;;;5015709;28;20039;-64
2021/09/12 03:57:10;;;;;;;39.13;17.67;;;;;;;;;;5021397;28;20046;-64
2021/09/12 03:59:36;;;;;;;33.28;18.40;;;;;;;;;;5016070;28;20057;-64
2021/09/12 04:02:02;;;;;;;44.58;19.40;;;;;;;;;;5026274;28;20616;-64
2021/09/12 04:04:28;;;;;;;39.42;18.80;;;;;;;;;;5016774;28;20060;-64
2021/09/12 04:06:54;;;;;;;33.78;18.85;;;;;;;;;;5019521;28;20488;-64
2021/09/12 04:09:20;;;;;;;45.10;19.77;;;;;;;;;;5025430;28;20041;-64
2021/09/12 04:11:46;;;;;;;39.17;18.02;;;;;;;;;;5025376;28;20069;-64
2021/09/12 04:14:12;;;;;;;47.63;21.95;;;;;;;;;;5014863;28;20037;-64
2021/09/12 04:16:38;;;;;;;42.22;19.05;;;;;;;;;;5025628;28;20086;-64
2021/09/12 04:19:04;;;;;;;42.80;19.85;;;;;;;;;;5019286;28;20136;-64
2021/09/12 04:21:31;;;;;;;41.50;20.50;;;;;;;;;;5017002;28;20042;-64
2021/09/12 04:23:57;;;;;;;33.40;18.08;;;;;;;;;;5019249;28;20458;-65
2021/09/12 04:26:23;;;;;;;36.40;19.70;;;;;;;;;;5018879;28;20203;-65
2021/09/12 04:28:49;;;;;;;36.17;18.70;;;;;;;;;;5024409;28;20069;-65
2021/09/12 04:31:15;;;;;;;35.33;18.95;;;;;;;;;;5018948;28;20037;-65
2021/09/12 04:33:41;;;;;;;34.50;18.27;;;;;;;;;;5022998;28;20045;-65
2021/09/12 04:36:07;;;;;;;60.95;22.70;;;;;;;;;;5013302;28;20190;-65
2021/09/12 04:38:33;;;;;;;36.28;18.58;;;;;;;;;;5022848;28;20053;-65
2021/09/12 04:41:00;;;;;;;42.47;20.45;;;;;;;;;;5016074;28;20045;-65
2021/09/12 04:43:26;;;;;;;70.50;24.88;;;;;;;;;;5025899;28;20379;-64
2021/09/12 04:45:52;;;;;;;43.85;20.15;;;;;;;;;;5016726;28;20402;-64
2021/09/12 04:48:18;;;;;;;37.63;19.70;;;;;;;;;;5020643;28;20037;-64
2021/09/12 04:50:44;;;;;;;47.42;21.00;;;;;;;;;;5010609;28;20037;-64
2021/09/12 04:53:10;;;;;;;40.38;20.02;;;;;;;;;;5027184;28;20041;-64
2021/09/12 04:55:36;;;;;;;42.97;22.08;;;;;;;;;;5010569;28;20409;-64
2021/09/12 04:58:03;;;;;;;49.47;21.70;;;;;;;;;;5020868;28;20037;-64
2021/09/12 05:00:29;;;;;;;38.25;18.92;;;;;;;;;;5019196;28;20136;-64
2021/09/12 05:02:55;;;;;;;48.30;19.95;;;;;;;;;;5011601;28;20069;-64
2021/09/12 05:05:21;;;;;;;35.38;19.15;;;;;;;;;;5024593;28;20076;-64
2021/09/12 05:07:47;;;;;;;43.70;20.55;;;;;;;;;;5011609;28;20180;-64
2021/09/12 05:10:13;;;;;;;37.13;18.00;;;;;;;;;;5018821;28;20038;-64
2021/09/12 05:12:39;;;;;;;30.70;17.63;;;;;;;;;;5017307;28;20092;-64
2021/09/12 05:15:06;;;;;;;39.72;16.77;;;;;;;;;;5023163;28;20048;-63
2021/09/12 05:17:32;;;;;;;43.65;18.58;;;;;;;;;;5014085;28;20049;-64
2021/09/12 05:19:58;;;;;;;33.22;16.35;;;;;;;;;;5025709;28;20448;-64
2021/09/12 05:22:24;;;;;;;32.85;15.48;;;;;;;;;;5017069;28;20436;-64
2021/09/12 05:24:50;;;;;;;33.13;16.42;;;;;;;;;;5023817;28;20486;-64
2021/09/12 05:27:16;;;;;;;28.33;15.38;;;;;;;;;;5022625;28;20462;-63
2021/09/12 05:29:42;;;;;;;29.27;15.23;;;;;;;;;;5024777;28;20456;-65
2021/09/12 05:32:08;;;;;;;30.48;16.42;;;;;;;;;;5017379;28;20120;-65
2021/09/12 05:34:35;;;;;;;37.47;16.42;;;;;;;;;;5026248;28;20526;-65
2021/09/12 05:37:01;;;;;;;44.40;16.98;;;;;;;;;;5023127;28;20732;-65
2021/09/12 05:39:27;;;;;;;33.55;15.05;;;;;;;;;;5016159;28;20445;-65
2021/09/12 05:41:53;;;;;;;29.65;15.27;;;;;;;;;;5042058;28;20401;-65
2021/09/12 05:44:19;;;;;;;35.22;15.63;;;;;;;;;;5018756;28;20370;-65
2021/09/12 05:46:47;;;;;;;29.38;15.32;;;;;;;;;;5021769;28;20084;-65
2021/09/12 05:49:13;;;;;;;28.27;14.93;;;;;;;;;;5017163;28;20056;-65
2021/09/12 05:51:39;;;;;;;29.10;14.07;;;;;;;;;;5023271;28;20092;-65
2021/09/12 05:54:05;;;;;;;30.90;15.35;;;;;;;;;;5018457;28;20497;-65
2021/09/12 05:56:31;;;;;;;29.63;13.82;;;;;;;;;;5027442;28;20037;-65
2021/09/12 05:58:57;;;;;;;26.88;14.15;;;;;;;;;;5019015;28;20033;-65
2021/09/12 06:01:24;;;;;;;30.63;14.13;;;;;;;;;;5023716;28;20042;-65
2021/09/12 06:03:50;;;;;;;31.05;14.30;;;;;;;;;;5020702;28;20045;-65
2021/09/12 06:06:16;;;;;;;26.02;14.27;;;;;;;;;;5022478;28;20038;-63
2021/09/12 06:08:42;;;;;;;30.17;13.82;;;;;;;;;;5016085;28;20053;-65
2021/09/12 06:11:10;;;;;;;25.75;12.98;;;;;;;;;;5027601;28;20190;-65
2021/09/12 06:13:37;;;;;;;29.80;15.25;;;;;;;;;;5022994;28;20100;-65
2021/09/12 06:16:03;;;;;;;23.05;13.75;;;;;;;;;;5023650;28;20050;-65
2021/09/12 06:18:29;;;;;;;26.90;13.65;;;;;;;;;;5025344;28;20367;-65
2021/09/12 06:20:56;;;;;;;26.35;13.70;;;;;;;;;;5018542;28;20116;-65
2021/09/12 06:23:22;;;;;;;30.95;13.68;;;;;;;;;;5019330;28;20156;-65
2021/09/12 06:25:48;;;;;;;20.23;12.90;;;;;;;;;;5019285;28;20057;-65
2021/09/12 06:28:14;;;;;;;24.05;14.13;;;;;;;;;;5023875;28;20037;-65
2021/09/12 06:30:42;;;;;;;25.05;14.43;;;;;;;;;;5016994;28;20037;-65
2021/09/12 06:33:08;;;;;;;32.55;13.35;;;;;;;;;;5023609;28;20046;-65
2021/09/12 06:35:34;;;;;;;22.13;12.70;;;;;;;;;;5014152;28;20109;-65
2021/09/12 06:38:00;;;;;;;21.45;13.05;;;;;;;;;;5020856;28;20176;-65
2021/09/12 06:40:30;;;;;;;27.20;14.18;;;;;;;;;;5018472;28;20079;-65
2021/09/12 06:42:56;;;;;;;27.50;14.35;;;;;;;;;;5024664;28;20052;-65
2021/09/12 06:45:22;;;;;;;23.13;13.02;;;;;;;;;;5013467;28;20103;-65
2021/09/12 06:47:48;;;;;;;25.25;13.07;;;;;;;;;;5025612;28;20048;-65
2021/09/12 06:50:14;;;;;;;27.60;13.30;;;;;;;;;;5017797;28;20129;-65
2021/09/12 06:52:41;;;;;;;24.70;13.00;;;;;;;;;;5021150;28;20042;-65
2021/09/12 06:55:07;;;;;;;23.02;12.90;;;;;;;;;;5019721;28;20046;-65
2021/09/12 06:57:33;;;;;;;20.52;12.77;;;;;;;;;;5021894;28;20075;-65
2021/09/12 06:59:59;;;;;;;25.60;12.88;;;;;;;;;;5024101;28;20062;-65
2021/09/12 07:02:25;;;;;;;22.92;12.88;;;;;;;;;;5019220;28;20061;-65
2021/09/12 07:04:51;;;;;;;22.25;12.93;;;;;;;;;;5024761;28;20045;-65
2021/09/12 07:07:17;;;;;;;25.75;13.63;;;;;;;;;;5016553;28;20042;-65
2021/09/12 07:09:43;;;;;;;26.67;14.50;;;;;;;;;;5016684;28;20038;-65
2021/09/12 07:12:09;;;;;;;21.23;13.43;;;;;;;;;;5013904;28;20069;-64
2021/09/12 07:14:36;;;;;;;25.20;13.10;;;;;;;;;;5021817;28;20464;-64
2021/09/12 07:17:02;;;;;;;20.60;12.75;;;;;;;;;;5017803;28;20038;-64
2021/09/12 07:19:28;;;;;;;27.17;15.55;;;;;;;;;;5016439;28;20374;-64
2021/09/12 07:21:54;;;;;;;27.77;14.05;;;;;;;;;;5015012;28;20132;-64
2021/09/12 07:24:20;;;;;;;23.58;12.65;;;;;;;;;;5017063;28;20129;-64
2021/09/12 07:26:46;;;;;;;23.05;13.55;;;;;;;;;;5018433;28;20132;-64
2021/09/12 07:29:12;;;;;;;21.67;13.75;;;;;;;;;;5016731;28;20075;-64
2021/09/12 07:31:38;;;;;;;26.33;13.52;;;;;;;;;;5013086;28;20029;-64
2021/09/12 07:34:04;;;;;;;19.95;14.18;;;;;;;;;;5020311;28;20124;-64
2021/09/12 07:36:30;;;;;;;20.75;13.68;;;;;;;;;;5018517;28;20041;-64
2021/09/12 07:38:56;;;;;;;21.38;12.65;;;;;;;;;;5009390;28;20041;-64
2021/09/12 07:41:22;;;;;;;17.67;12.52;;;;;;;;;;5018111;28;20049;-64
2021/09/12 07:43:48;;;;;;;25.63;13.75;;;;;;;;;;5014452;28;20581;-64
2021/09/12 07:46:14;;;;;;;20.58;13.57;;;;;;;;;;5019573;28;20045;-64
2021/09/12 07:48:41;;;;;;;23.70;14.10;;;;;;;;;;5010178;28;20113;-64
2021/09/12 07:51:07;;;;;;;22.95;13.90;;;;;;;;;;5017376;28;20037;-65
2021/09/12 07:53:33;;;;;;;20.90;14.02;;;;;;;;;;5019996;28;20042;-65
2021/09/12 07:55:59;;;;;;;29.20;14.65;;;;;;;;;;5025996;28;20069;-65
2021/09/12 07:58:25;;;;;;;26.83;15.07;;;;;;;;;;5011069;28;20061;-65
2021/09/12 08:00:51;;;;;;;22.80;14.38;;;;;;;;;;5022349;28;20083;-65
2021/09/12 08:03:18;;;;;;;27.73;16.45;;;;;;;;;;5020563;28;20068;-65
2021/09/12 08:05:44;;;;;;;28.35;16.25;;;;;;;;;;5025954;28;20068;-65
2021/09/12 08:08:10;;;;;;;26.42;16.27;;;;;;;;;;5014073;28;20409;-65
2021/09/12 08:10:36;;;;;;;28.60;17.55;;;;;;;;;;5026588;28;20397;-63
2021/09/12 08:13:02;;;;;;;25.92;17.52;;;;;;;;;;5021283;28;20406;-62
2021/09/12 08:15:28;;;;;;;26.00;17.63;;;;;;;;;;5012932;28;20513;-62
2021/09/12 08:17:54;;;;;;;31.67;17.30;;;;;;;;;;5017197;28;20044;-64
2021/09/12 08:20:20;;;;;;;28.90;17.77;;;;;;;;;;5009539;28;20049;-64
2021/09/12 08:22:47;;;;;;;31.73;19.15;;;;;;;;;;5017279;28;20604;-63
2021/09/12 08:25:13;;;;;;;32.47;20.02;;;;;;;;;;5029439;28;20399;-63
2021/09/12 08:27:39;;;;;;;29.20;18.77;;;;;;;;;;5019805;28;20048;-63
2021/09/12 08:30:05;;;;;;;31.80;19.08;;;;;;;;;;5010412;28;20511;-63
2021/09/12 08:32:31;;;;;;;35.60;21.00;;;;;;;;;;5017600;28;20413;-63
2021/09/12 08:34:57;;;;;;;32.72;19.77;;;;;;;;;;5013705;28;20391;-63
2021/09/12 08:37:24;;;;;;;34.42;20.45;;;;;;;;;;5024708;28;20045;-63
2021/09/12 08:39:50;;;;;;;35.13;19.98;;;;;;;;;;5014362;28;20042;-64
2021/09/12 08:42:17;;;;;;;31.98;21.25;;;;;;;;;;5015918;28;20406;-64
2021/09/12 08:44:47;;;;;;;30.30;20.67;;;;;;;;;;5018072;28;20049;-64
2021/09/12 08:47:13;;;;;;;29.42;21.08;;;;;;;;;;5020857;28;20113;-64
2021/09/12 08:49:40;;;;;;;35.50;22.75;;;;;;;;;;5011467;28;20029;-64
2021/09/12 08:52:06;;;;;;;36.20;23.65;;;;;;;;;;5016822;28;20383;-64
2021/09/12 08:54:32;;;;;;;38.55;24.35;;;;;;;;;;5018973;28;20033;-64
2021/09/12 08:56:58;;;;;;;37.65;23.38;;;;;;;;;;5011957;28;20129;-64
2021/09/12 08:59:25;;;;;;;42.00;23.38;;;;;;;;;;5015151;28;20453;-64
2021/09/12 09:01:54;;;;;;;34.78;23.77;;;;;;;;;;5019194;28;20045;-64
2021/09/12 09:04:20;;;;;;;38.78;22.90;;;;;;;;;;5025346;28;20073;-64
2021/09/12 09:06:46;;;;;;;38.15;25.23;;;;;;;;;;5014220;28;20061;-64
2021/09/12 09:09:12;;;;;;;42.58;24.52;;;;;;;;;;5015534;28;20498;-64
2021/09/12 09:11:40;;;;;;;41.00;25.00;;;;;;;;;;5011870;28;20034;-64
2021/09/12 09:14:13;;;;;;;40.20;25.70;;;;;;;;;;5017749;28;20068;-64
2021/09/12 09:16:39;;;;;;;38.95;25.23;;;;;;;;;;5011089;28;20232;-64
2021/09/12 09:19:06;;;;;;;40.08;25.75;;;;;;;;;;5016383;28;20065;-64
2021/09/12 09:21:37;;;;;;;40.90;24.90;;;;;;;;;;5012572;28;20037;-64
2021/09/12 09:24:09;;;;;;;41.88;25.40;;;;;;;;;;5019897;28;20038;-64
2021/09/12 09:26:46;;;;;;;42.50;26.73;;;;;;;;;;5009584;28;20048;-64
2021/09/12 09:29:13;;;;;;;43.45;26.25;;;;;;;;;;5014629;28;20449;-64
2021/09/12 09:31:39;;;;;;;46.42;26.02;;;;;;;;;;5014029;28;20036;-64
2021/09/12 09:34:26;;;;;;;41.50;26.08;;;;;;;;;;5019232;28;20352;-64
2021/09/12 09:36:52;;;;;;;40.83;25.63;;;;;;;;;;5011014;28;20041;-64
2021/09/12 09:39:36;;;;;;;41.80;25.88;;;;;;;;;;5018611;28;20047;-64
2021/09/12 09:42:02;;;;;;;42.03;25.73;;;;;;;;;;5009594;28;20038;-64
2021/09/12 09:44:28;;;;;;;43.78;26.55;;;;;;;;;;5017260;28;20056;-64
2021/09/12 09:46:55;;;;;;;44.25;25.20;;;;;;;;;;5012372;28;20038;-64
2021/09/12 09:49:25;;;;;;;35.95;23.92;;;;;;;;;;5024493;28;20414;-64
2021/09/12 09:51:53;;;;;;;38.38;24.77;;;;;;;;;;5017684;28;20048;-64
2021/09/12 09:54:20;;;;;;;36.75;24.95;;;;;;;;;;5011426;28;20068;-64
2021/09/12 09:56:47;;;;;;;36.35;24.42;;;;;;;;;;5016707;28;20056;-64
2021/09/12 09:59:14;;;;;;;35.70;23.98;;;;;;;;;;5008154;28;20062;-64
2021/09/12 10:01:41;;;;;;;34.58;23.85;;;;;;;;;;5015171;28;20038;-64
2021/09/12 10:04:07;;;;;;;29.60;22.40;;;;;;;;;;5012087;28;20045;-64
2021/09/12 10:06:33;;;;;;;32.17;22.48;;;;;;;;;;5011338;28;20111;-64
2021/09/12 10:08:59;;;;;;;36.45;23.92;;;;;;;;;;5010233;28;20038;-64
2021/09/12 10:11:26;;;;;;;36.28;24.35;;;;;;;;;;5018833;28;20040;-64
2021/09/12 10:13:53;;;;;;;37.20;25.50;;;;;;;;;;5013757;28;20037;-64
2021/09/12 10:16:19;;;;;;;35.65;25.40;;;;;;;;;;5021043;28;20050;-64
2021/09/12 10:18:45;;;;;;;36.25;24.40;;;;;;;;;;5012605;28;20048;-64
2021/09/12 10:21:22;;;;;;;39.08;24.50;;;;;;;;;;5021205;28;20418;-64
2021/09/12 10:24:01;;;;;;;37.58;23.90;;;;;;;;;;5007868;28;20422;-64
2021/09/12 10:26:29;;;;;;;39.42;25.63;;;;;;;;;;5019496;28;20484;-64
2021/09/12 10:28:55;;;;;;;38.00;24.02;;;;;;;;;;5011545;28;20061;-64
2021/09/12 10:31:27;;;;;;;37.92;24.35;;;;;;;;;;5015940;28;20034;-64
2021/09/12 10:34:22;;;;;;;39.13;25.13;;;;;;;;;;5016041;28;20585;-64
2021/09/12 10:36:48;;;;;;;39.33;25.98;;;;;;;;;;5013132;28;20402;-64
2021/09/12 10:39:23;;;;;;;37.97;25.85;;;;;;;;;;5012218;28;20190;-65
2021/09/12 10:42:08;;;;;;;37.58;26.42;;;;;;;;;;5019658;28;20037;-65
2021/09/12 10:44:34;;;;;;;37.28;25.20;;;;;;;;;;5014667;28;20079;-65
2021/09/12 10:47:07;;;;;;;36.45;26.63;;;;;;;;;;5017853;28;20034;-66
2021/09/12 10:49:33;;;;;;;37.95;26.30;;;;;;;;;;5011685;28;20049;-65
2021/09/12 10:51:59;;;;;;;44.50;28.13;;;;;;;;;;5014236;28;20116;-64
2021/09/12 10:54:25;;;;;;;41.08;26.35;;;;;;;;;;5009909;28;20041;-64
2021/09/12 10:57:08;;;;;;;39.42;26.52;;;;;;;;;;5017405;28;20456;-64
2021/09/12 10:59:34;;;;;;;39.83;27.00;;;;;;;;;;5020198;28;20576;-64
2021/09/12 11:02:00;;;;;;;35.85;24.83;;;;;;;;;;5018657;28;20053;-64
2021/09/12 11:04:31;;;;;;;40.22;26.35;;;;;;;;;;5015781;28;20603;-64
2021/09/12 11:07:04;;;;;;;35.05;25.02;;;;;;;;;;5007552;28;20653;-64
2021/09/12 11:09:31;;;;;;;39.57;25.67;;;;;;;;;;5022509;28;20083;-64
2021/09/12 11:11:59;;;;;;;38.30;26.35;;;;;;;;;;5016901;28;20086;-65
2021/09/12 11:14:25;;;;;;;35.15;25.52;;;;;;;;;;5015375;28;20038;-65
2021/09/12 11:16:51;;;;;;;37.10;25.55;;;;;;;;;;5009434;28;20135;-65
2021/09/12 11:19:18;;;;;;;38.85;24.88;;;;;;;;;;5013480;28;20050;-65
2021/09/12 11:21:46;;;;;;;28.48;21.92;;;;;;;;;;5009853;28;20481;-65
2021/09/12 11:24:13;;;;;;;32.05;22.35;;;;;;;;;;5012342;28;20041;-65
2021/09/12 11:26:39;;;;;;;33.20;21.00;;;;;;;;;;5009821;28;20096;-65
2021/09/12 11:29:07;;;;;;;31.10;22.05;;;;;;;;;;5013363;28;20030;-65
2021/09/12 11:31:34;;;;;;;27.08;20.10;;;;;;;;;;5011123;28;20121;-65
2021/09/12 11:34:00;;;;;;;30.77;21.02;;;;;;;;;;5018135;28;20030;-65
2021/09/12 11:36:26;;;;;;;28.58;21.02;;;;;;;;;;5017774;28;20037;-65
2021/09/12 11:38:57;;;;;;;30.00;21.08;;;;;;;;;;5025134;28;20110;-65
2021/09/12 11:41:24;;;;;;;26.40;20.88;;;;;;;;;;5017829;28;20460;-65
2021/09/12 11:43:57;;;;;;;23.45;19.50;;;;;;;;;;5022558;28;20052;-65
2021/09/12 11:46:24;;;;;;;28.93;20.73;;;;;;;;;;5019802;28;20136;-65
2021/09/12 11:48:57;;;;;;;27.77;20.25;;;;;;;;;;5021414;28;20291;-65
2021/09/12 11:51:27;;;;;;;23.33;19.52;;;;;;;;;;5027150;28;20367;-65
2021/09/12 11:54:13;;;;;;;25.25;18.42;;;;;;;;;;5011141;28;20057;-65
2021/09/12 11:56:40;;;;;;;22.85;17.25;;;;;;;;;;5019166;28;20042;-65
2021/09/12 11:59:07;;;;;;;19.27;15.70;;;;;;;;;;5014707;28;20517;-65
2021/09/12 12:01:34;;;;;;;20.38;15.18;;;;;;;;;;5022305;28;20058;-65
2021/09/12 12:04:02;;;;;;;19.35;14.75;;;;;;;;;;5013098;28;20054;-66
2021/09/12 12:06:29;;;;;;;19.25;12.73;;;;;;;;;;5023834;28;20123;-66
2021/09/12 12:09:07;;;;;;;18.73;13.95;;;;;;;;;;5024581;28;20042;-66
2021/09/12 12:11:34;;;;;;;17.35;13.95;;;;;;;;;;5018309;28;20529;-66
2021/09/12 12:14:01;;;;;;;18.40;14.68;;;;;;;;;;5011482;28;20034;-66
2021/09/12 12:16:28;;;;;;;19.67;15.02;;;;;;;;;;5024807;28;20245;-66
2021/09/12 12:19:00;;;;;;;19.02;15.55;;;;;;;;;;5010730;28;20045;-66
2021/09/12 12:21:30;;;;;;;19.50;15.45;;;;;;;;;;5018796;28;20063;-66
2021/09/12 12:23:56;;;;;;;20.60;16.65;;;;;;;;;;5010881;28;20053;-66
2021/09/12 12:26:23;;;;;;;16.85;11.52;;;;;;;;;;5019451;28;20045;-66
2021/09/12 12:28:59;;;;;;;14.02;10.27;;;;;;;;;;5014779;28;20132;-66
2021/09/12 12:31:25;;;;;;;10.77;8.40;;;;;;;;;;5027193;28;20093;-66
2021/09/12 12:33:51;;;;;;;9.65;6.85;;;;;;;;;;5015770;28;20528;-66
2021/09/12 12:36:19;;;;;;;8.50;6.18;;;;;;;;;;5018791;28;20045;-66
2021/09/12 12:38:46;;;;;;;7.60;5.10;;;;;;;;;;5008201;28;20121;-66
2021/09/12 12:41:13;;;;;;;8.32;4.85;;;;;;;;;;5020366;28;20053;-66
2021/09/12 12:43:40;;;;;;;6.85;4.57;;;;;;;;;;5014759;28;20044;-66
2021/09/12 12:46:07;;;;;;;7.90;4.47;;;;;;;;;;5014917;28;20121;-67
2021/09/12 12:48:34;;;;;;;9.30;4.40;;;;;;;;;;5020931;28;20427;-67
2021/09/12 12:51:13;;;;;;;5.80;4.32;;;;;;;;;;5018642;28;20072;-67
2021/09/12 12:53:44;;;;;;;8.15;4.28;;;;;;;;;;5024212;28;20041;-67
2021/09/12 12:56:14;;;;;;;5.00;2.88;;;;;;;;;;5020072;28;20506;-67
2021/09/12 12:58:40;;;;;;;3.50;2.00;;;;;;;;;;5018151;28;20095;-67
2021/09/12 13:01:07;;;;;;;4.72;2.13;;;;;;;;;;5012242;28;20054;-65
2021/09/12 13:03:34;;;;;;;4.07;1.60;;;;;;;;;;5015969;28;20034;-65
2021/09/12 13:06:01;;;;;;;3.83;1.35;;;;;;;;;;5018745;28;20049;-65
2021/09/12 13:08:28;;;;;;;3.72;1.00;;;;;;;;;;5023287;28;20038;-65
2021/09/12 13:10:54;;;;;;;5.90;1.55;;;;;;;;;;5016523;28;20095;-65
2021/09/12 13:13:20;;;;;;;3.60;0.70;;;;;;;;;;5018616;28;20044;-65
2021/09/12 13:15:47;;;;;;;2.58;1.10;;;;;;;;;;5017575;28;20057;-65
2021/09/12 13:18:14;;;;;;;5.25;1.15;;;;;;;;;;5025119;28;20055;-65
2021/09/12 13:20:40;;;;;;;4.00;1.10;;;;;;;;;;5012247;28;20237;-65
2021/09/12 13:23:06;;;;;;;3.60;0.73;;;;;;;;;;5017761;28;20042;-65
2021/09/12 13:25:32;;;;;;;2.05;0.93;;;;;;;;;;5013411;28;20517;-65
2021/09/12 13:27:59;;;;;;;2.75;0.70;;;;;;;;;;5025624;28;20134;-65
2021/09/12 13:30:26;;;;;;;2.35;0.60;;;;;;;;;;5016347;28;20168;-65
2021/09/12 13:32:52;;;;;;;4.32;0.47;;;;;;;;;;5017081;28;20124;-66
2021/09/12 13:35:18;;;;;;;4.53;0.52;;;;;;;;;;5016415;28;20045;-66
2021/09/12 13:37:45;;;;;;;2.00;0.38;;;;;;;;;;5011952;28;20037;-66
2021/09/12 13:40:11;;;;;;;3.33;0.45;;;;;;;;;;5017075;28;20038;-66
2021/09/12 13:42:38;;;;;;;2.65;0.40;;;;;;;;;;5011667;28;20038;-66
2021/09/12 13:45:05;;;;;;;1.95;0.55;;;;;;;;;;5015203;28;20073;-66
2021/09/12 13:47:31;;;;;;;1.75;0.45;;;;;;;;;;5009805;28;20107;-66
2021/09/12 13:49:57;;;;;;;2.28;0.40;;;;;;;;;;5014988;28;20092;-66
2021/09/12 13:52:24;;;;;;;2.25;0.30;;;;;;;;;;5015472;28;20045;-66
2021/09/12 13:54:50;;;;;;;2.50;0.40;;;;;;;;;;5015003;28;20029;-66
2021/09/12 13:57:16;;;;;;;1.63;0.30;;;;;;;;;;5009766;28;20042;-66
2021/09/12 13:59:42;;;;;;;1.17;0.30;;;;;;;;;;5021127;28;20083;-66
2021/09/12 14:02:08;;;;;;;2.08;0.40;;;;;;;;;;5016604;28;20037;-66
2021/09/12 14:04:39;;;;;;;2.58;0.40;;;;;;;;;;5015879;28;20030;-66
2021/09/12 14:07:05;;;;;;;3.20;0.50;;;;;;;;;;5009876;28;20038;-66
2021/09/12 14:09:31;;;;;;;1.52;0.32;;;;;;;;;;5015171;28;20136;-66
2021/09/12 14:11:57;;;;;;;0.50;0.30;;;;;;;;;;5016219;28;20042;-66
2021/09/12 14:14:23;;;;;;;3.67;0.50;;;;;;;;;;5016161;28;20053;-66
2021/09/12 14:16:49;;;;;;;1.17;0.30;;;;;;;;;;5014340;28;20476;-66
2021/09/12 14:19:15;;;;;;;1.42;0.30;;;;;;;;;;5010551;28;20461;-66